Time;durP1;ratioP1;P1;durP2;ratioP2;P2;SDS_P1;SDS_P2;PMS_P1;PMS_P2;Temp;Humidity;BMP_temperature;BMP_pressure;BME280_temperature;BME280_humidity;BME280_pressure;Samples;Min_cycle;Max_cycle;Signal;HPM_P1;HPM_P2
2021/12/09 00:00:37;;;;;;;15.50;11.18;;;0.10;99.90;;;;;;6056512;23;20327;-83
2021/12/09 00:03:07;;;;;;;14.70;11.68;;;0.00;99.90;;;;;;6069819;23;20026;-83
2021/12/09 00:05:37;;;;;;;14.90;10.95;;;0.10;99.90;;;;;;6046136;23;20022;-83
2021/12/09 00:08:06;;;;;;;18.08;9.98;;;0.20;99.90;;;;;;6069679;23;20477;-83
2021/12/09 00:10:35;;;;;;;19.42;12.13;;;0.00;99.90;;;;;;6068502;23;20030;-83
2021/12/09 00:13:05;;;;;;;15.40;11.43;;;0.00;99.90;;;;;;6022181;23;20022;-83
2021/12/09 00:15:34;;;;;;;12.45;10.20;;;0.00;99.90;;;;;;6072103;23;20037;-83
2021/12/09 00:18:02;;;;;;;10.82;9.40;;;0.00;99.90;;;;;;6022149;23;20029;-83
2021/12/09 00:20:33;;;;;;;10.18;8.32;;;0.00;99.90;;;;;;6068929;23;20041;-83
2021/12/09 00:23:01;;;;;;;13.18;10.57;;;0.10;99.90;;;;;;6044688;23;20033;-83
2021/12/09 00:25:28;;;;;;;12.70;11.25;;;0.00;99.90;;;;;;6078998;23;20018;-83
2021/12/09 00:27:57;;;;;;;10.65;9.52;;;0.00;99.90;;;;;;6067798;23;20327;-83
2021/12/09 00:30:24;;;;;;;10.60;9.48;;;-0.10;99.90;;;;;;6044609;23;20030;-83
2021/12/09 00:32:52;;;;;;;15.02;12.10;;;-0.10;99.90;;;;;;6055899;23;20030;-83
2021/12/09 00:35:27;;;;;;;16.30;11.02;;;-0.10;99.90;;;;;;6049696;23;20018;-83
2021/12/09 00:38:00;;;;;;;12.25;9.95;;;-0.10;99.90;;;;;;6055343;23;20022;-83
2021/12/09 00:40:28;;;;;;;12.25;9.82;;;-0.10;99.90;;;;;;6021428;23;20029;-83
2021/12/09 00:42:57;;;;;;;14.90;12.73;;;-0.10;99.90;;;;;;6021755;23;20030;-83
2021/12/09 00:45:25;;;;;;;16.63;13.38;;;-0.10;99.90;;;;;;6023071;23;20477;-83
2021/12/09 00:47:53;;;;;;;17.02;14.32;;;-0.10;99.90;;;;;;6096107;23;20022;-83
2021/12/09 00:50:22;;;;;;;12.23;9.48;;;-0.10;99.90;;;;;;6102668;23;20025;-83
2021/12/09 00:52:50;;;;;;;16.75;10.23;;;0.00;99.90;;;;;;6044471;23;20019;-83
2021/12/09 00:55:20;;;;;;;10.65;9.52;;;-0.10;99.90;;;;;;6022219;23;20766;-83
2021/12/09 00:57:51;;;;;;;14.55;10.77;;;-0.10;99.90;;;;;;6069348;23;20374;-83
2021/12/09 01:00:21;;;;;;;12.25;11.02;;;-0.10;99.90;;;;;;6068694;23;20027;-80
2021/12/09 01:02:53;;;;;;;12.20;10.13;;;-0.30;99.90;;;;;;6023019;23;20041;-80
2021/12/09 01:05:22;;;;;;;14.57;9.70;;;-0.20;99.90;;;;;;6022700;23;20029;-83
2021/12/09 01:07:50;;;;;;;14.50;9.52;;;-0.20;99.90;;;;;;6031508;23;20378;-83
2021/12/09 01:10:18;;;;;;;13.07;10.38;;;-0.10;99.90;;;;;;6020701;23;20015;-83
2021/12/09 01:12:49;;;;;;;13.00;10.30;;;-0.10;99.90;;;;;;6045447;23;20514;-81
2021/12/09 01:15:20;;;;;;;12.10;9.18;;;-0.10;99.90;;;;;;6021410;23;20026;-81
2021/12/09 01:17:49;;;;;;;20.20;12.27;;;-0.10;99.90;;;;;;6045579;23;20018;-81
2021/12/09 01:20:19;;;;;;;11.57;10.45;;;-0.10;99.90;;;;;;6044838;23;20447;-81
2021/12/09 01:23:07;;;;;;;12.55;9.27;;;-0.20;99.90;;;;;;6067833;23;20462;-82
2021/12/09 01:25:45;;;;;;;13.03;8.93;;;-0.30;99.90;;;;;;6045902;23;20022;-81
2021/12/09 01:28:32;;;;;;;14.88;9.27;;;-0.20;99.90;;;;;;6053010;23;20027;-81
2021/12/09 01:31:06;;;;;;;14.55;11.57;;;-0.10;99.90;;;;;;6068751;23;20038;-83
2021/12/09 01:33:44;;;;;;;13.93;9.50;;;-0.20;99.90;;;;;;6023714;23;20014;-83
2021/12/09 01:36:25;;;;;;;16.15;10.95;;;-0.20;99.90;;;;;;6024725;23;20471;-80
2021/12/09 01:39:45;;;;;;;;;;;;;;;;;;;;;
2021/12/09 01:43:40;;;;;;;;;;;;;;;;;;;;;
2021/12/09 01:47:45;;;;;;;16.30;9.43;;;-0.10;99.90;;;;;;5949927;24;20015;-82
2021/12/09 02:37:52;;;;;;;11.25;9.20;;;0.10;99.90;;;;;;5821020;24;20462;-82
2021/12/09 02:41:21;;;;;;;10.70;6.65;;;0.10;99.90;;;;;;5770510;24;20547;-82
2021/12/09 02:44:39;;;;;;;9.40;7.45;;;0.20;99.90;;;;;;5716566;24;20026;-90
2021/12/09 02:53:10;;;;;;;;;;;;;;;;;;;;;
2021/12/09 03:02:04;;;;;;;10.80;7.82;;;0.10;99.90;;;;;;5838741;24;20020;-83
2021/12/09 03:05:23;;;;;;;10.23;5.85;;;0.20;99.90;;;;;;5889658;24;20033;-83
2021/12/09 03:09:51;;;;;;;11.30;7.07;;;0.20;99.90;;;;;;5979171;23;20027;-83
2021/12/09 03:12:25;;;;;;;9.18;7.30;;;0.20;99.90;;;;;;5992936;23;20031;-82
2021/12/09 03:14:53;;;;;;;9.93;7.07;;;0.20;99.90;;;;;;5985859;23;20023;-83
2021/12/09 03:17:22;;;;;;;12.70;8.82;;;0.10;99.90;;;;;;6008310;23;20030;-83
2021/12/09 03:19:50;;;;;;;11.15;8.20;;;0.10;99.90;;;;;;6039268;23;20526;-83
2021/12/09 03:22:47;;;;;;;9.10;6.97;;;0.10;99.90;;;;;;5994250;23;20030;-83
2021/12/09 03:25:29;;;;;;;7.57;5.63;;;0.20;99.90;;;;;;6072841;23;20018;-83
2021/12/09 03:28:13;;;;;;;8.65;7.28;;;0.10;99.90;;;;;;6041254;23;20350;-83
2021/12/09 03:30:49;;;;;;;9.85;7.28;;;0.10;99.90;;;;;;6016612;23;20030;-83
2021/12/09 03:33:18;;;;;;;;;;;0.10;99.90;;;;;;6016726;23;20019;-84
2021/12/09 03:36:02;;;;;;;7.95;6.38;;;0.10;99.90;;;;;;5993940;23;19921;-83
2021/12/09 03:38:32;;;;;;;11.45;5.90;;;0.10;99.90;;;;;;6070051;23;20022;-84
2021/12/09 03:41:00;;;;;;;7.90;6.15;;;0.10;99.90;;;;;;6040004;23;20045;-83
2021/12/09 03:43:32;;;;;;;7.15;4.88;;;0.10;99.90;;;;;;6037845;23;20030;-83
2021/12/09 03:46:00;;;;;;;8.07;5.63;;;0.10;99.90;;;;;;6039512;23;20034;-87
2021/12/09 03:48:30;;;;;;;6.90;5.28;;;0.10;99.90;;;;;;6016683;23;20019;-88
2021/12/09 03:51:02;;;;;;;6.65;5.25;;;0.10;99.90;;;;;;6038509;23;20475;-87
2021/12/09 03:53:33;;;;;;;7.30;5.82;;;0.10;99.90;;;;;;5994241;23;20019;-85
2021/12/09 03:56:01;;;;;;;7.90;5.80;;;0.10;99.90;;;;;;6015437;23;20358;-88
2021/12/09 03:58:32;;;;;;;6.30;5.70;;;0.10;99.90;;;;;;6015227;23;20023;-88
2021/12/09 04:01:03;;;;;;;7.38;6.43;;;0.10;99.90;;;;;;6039881;23;20454;-87
2021/12/09 04:03:31;;;;;;;6.63;5.17;;;0.10;99.90;;;;;;6042522;23;20030;-86
2021/12/09 04:06:00;;;;;;;5.57;4.53;;;0.10;99.90;;;;;;6039059;23;20026;-84
2021/12/09 04:08:27;;;;;;;5.95;5.28;;;0.10;99.90;;;;;;6039614;23;20018;-86
2021/12/09 04:10:59;;;;;;;9.80;6.50;;;0.10;99.90;;;;;;6014550;23;20422;-85
2021/12/09 04:13:28;;;;;;;6.38;5.88;;;0.10;99.90;;;;;;6038512;23;20454;-85
2021/12/09 04:15:57;;;;;;;5.30;4.65;;;0.00;99.90;;;;;;6017058;23;20331;-84
2021/12/09 04:18:36;;;;;;;6.05;5.47;;;0.00;99.90;;;;;;6039344;23;20022;-85
2021/12/09 04:21:14;;;;;;;5.82;4.55;;;0.10;99.90;;;;;;6073245;23;20327;-86
2021/12/09 04:23:45;;;;;;;4.78;4.25;;;0.10;99.90;;;;;;6060883;23;20027;-85
2021/12/09 04:26:14;;;;;;;5.60;4.57;;;0.00;99.90;;;;;;6045619;23;20037;-84
2021/12/09 04:29:39;;;;;;;4.68;4.25;;;0.10;99.90;;;;;;6022545;23;20014;-85
2021/12/09 04:32:54;;;;;;;6.30;3.97;;;0.20;99.90;;;;;;6052330;23;20342;-83
2021/12/09 04:35:38;;;;;;;5.53;5.07;;;0.10;99.90;;;;;;6023469;23;20046;-83
2021/12/09 04:38:49;;;;;;;6.07;5.40;;;0.20;99.90;;;;;;6032801;23;21321;-83
2021/12/09 04:42:11;;;;;;;6.20;4.97;;;0.10;99.90;;;;;;6054872;23;20926;-83
2021/12/09 04:44:47;;;;;;;6.40;5.80;;;0.00;99.90;;;;;;6103931;23;20019;-82
2021/12/09 04:47:23;;;;;;;5.72;5.18;;;0.10;99.90;;;;;;6036717;23;20349;-82
2021/12/09 04:49:54;;;;;;;5.07;4.53;;;0.10;99.90;;;;;;6015732;23;20023;-82
2021/12/09 04:52:22;;;;;;;5.45;5.05;;;0.10;99.90;;;;;;6046400;23;20366;-83
2021/12/09 04:54:50;;;;;;;4.85;4.40;;;0.10;99.90;;;;;;6022216;23;20453;-83
2021/12/09 04:57:18;;;;;;;2.85;2.58;;;0.10;99.90;;;;;;6022562;23;20040;-85
2021/12/09 04:59:52;;;;;;;6.57;5.47;;;0.10;99.90;;;;;;6009851;23;20030;-83
2021/12/09 05:02:40;;;;;;;5.72;4.72;;;0.00;99.90;;;;;;6045166;23;20034;-84
2021/12/09 05:05:10;;;;;;;3.80;3.33;;;0.10;99.90;;;;;;6020520;23;20022;-81
2021/12/09 05:07:37;;;;;;;4.80;4.35;;;0.00;99.90;;;;;;6098211;23;20045;-83
2021/12/09 05:10:06;;;;;;;5.65;4.78;;;0.00;99.90;;;;;;6045763;23;20022;-83
2021/12/09 05:12:33;;;;;;;5.78;3.60;;;0.00;99.90;;;;;;6105457;23;20034;-83
2021/12/09 05:15:06;;;;;;;4.85;4.07;;;0.00;99.90;;;;;;6022711;23;20027;-82
2021/12/09 05:17:33;;;;;;;5.07;4.57;;;0.10;99.90;;;;;;6046301;23;20057;-83
2021/12/09 05:20:03;;;;;;;3.17;2.33;;;0.00;99.90;;;;;;6046411;23;20027;-83
2021/12/09 05:22:31;;;;;;;5.78;5.18;;;0.10;99.90;;;;;;6022124;23;20037;-82
2021/12/09 05:24:59;;;;;;;5.05;4.47;;;0.00;99.90;;;;;;6104112;23;20019;-82
2021/12/09 05:27:27;;;;;;;4.75;4.35;;;0.00;99.90;;;;;;6067842;23;20454;-83
2021/12/09 05:30:04;;;;;;;4.15;3.88;;;0.00;99.90;;;;;;6044391;23;20454;-82
2021/12/09 05:32:33;;;;;;;5.10;4.43;;;0.00;99.90;;;;;;6046721;23;20015;-83
2021/12/09 05:35:08;;;;;;;5.82;4.57;;;0.00;99.90;;;;;;6069206;23;20084;-83
2021/12/09 05:37:39;;;;;;;5.38;4.75;;;0.00;99.90;;;;;;6070481;23;20299;-82
2021/12/09 05:40:08;;;;;;;4.32;3.72;;;0.00;99.90;;;;;;6045533;23;20457;-82
2021/12/09 05:42:36;;;;;;;4.32;3.78;;;0.00;99.90;;;;;;6069054;23;20023;-80
2021/12/09 05:45:04;;;;;;;8.27;4.13;;;0.00;99.90;;;;;;6069818;23;20019;-82
2021/12/09 05:47:49;;;;;;;4.20;3.80;;;0.00;99.90;;;;;;6065780;23;20035;-83
2021/12/09 05:51:16;;;;;;;3.25;3.05;;;0.00;99.90;;;;;;6046121;23;20026;-83
2021/12/09 05:53:56;;;;;;;4.55;4.15;;;0.00;99.90;;;;;;6046974;23;20026;-80
2021/12/09 05:56:58;;;;;;;;;;;;;;;;;;;;;
2021/12/09 06:00:59;;;;;;;4.32;3.92;;;-0.10;99.90;;;;;;5888346;24;20066;-84
2021/12/09 06:03:56;;;;;;;4.35;3.95;;;0.00;99.90;;;;;;5894386;24;20033;-84
2021/12/09 06:06:30;;;;;;;3.92;3.63;;;0.00;99.90;;;;;;5876423;24;20036;-84
2021/12/09 06:08:59;;;;;;;4.43;4.00;;;0.00;99.90;;;;;;5909160;24;20038;-84
2021/12/09 06:11:28;;;;;;;5.53;5.03;;;0.00;99.90;;;;;;5968303;23;20038;-85
2021/12/09 06:13:56;;;;;;;4.63;4.22;;;0.00;99.90;;;;;;5981496;23;20024;-85
2021/12/09 06:16:24;;;;;;;4.32;3.90;;;0.00;99.90;;;;;;5974841;23;20128;-84
2021/12/09 06:18:54;;;;;;;4.55;3.70;;;-0.10;99.90;;;;;;5936896;23;20024;-82
2021/12/09 06:21:24;;;;;;;4.82;4.30;;;-0.10;99.90;;;;;;5974106;23;20020;-83
2021/12/09 06:23:51;;;;;;;4.00;3.70;;;-0.10;99.90;;;;;;5981222;23;20035;-81
2021/12/09 06:26:20;;;;;;;4.85;4.03;;;-0.10;99.90;;;;;;5958345;23;20329;-81
2021/12/09 06:28:51;;;;;;;4.28;3.88;;;-0.10;99.90;;;;;;6014841;23;20470;-82
2021/12/09 06:31:20;;;;;;;4.20;3.90;;;-0.10;99.90;;;;;;6000703;23;20026;-82
2021/12/09 06:33:48;;;;;;;4.45;4.05;;;-0.10;99.90;;;;;;6020821;23;20022;-81
2021/12/09 06:36:17;;;;;;;6.07;4.60;;;-0.10;99.90;;;;;;6092339;23;20488;-77
2021/12/09 06:38:45;;;;;;;4.85;4.45;;;-0.10;99.90;;;;;;6098239;23;20492;-81
2021/12/09 06:41:13;;;;;;;6.75;4.35;;;-0.10;99.90;;;;;;6045227;23;20018;-84
2021/12/09 06:43:41;;;;;;;3.38;3.08;;;-0.10;99.90;;;;;;6046605;23;20022;-84
2021/12/09 06:46:11;;;;;;;4.63;3.85;;;-0.10;99.90;;;;;;6044275;23;20026;-84
2021/12/09 06:48:40;;;;;;;3.63;3.42;;;-0.10;99.90;;;;;;6078511;23;20014;-85
2021/12/09 06:51:09;;;;;;;6.82;4.35;;;-0.10;99.90;;;;;;6096459;23;20030;-84
2021/12/09 06:53:37;;;;;;;3.53;3.30;;;-0.10;99.90;;;;;;6104127;23;20025;-84
2021/12/09 06:56:06;;;;;;;4.40;3.75;;;-0.10;99.90;;;;;;6091792;23;20025;-84
2021/12/09 06:58:34;;;;;;;3.55;3.25;;;-0.10;99.90;;;;;;6067725;23;20027;-85
2021/12/09 07:01:04;;;;;;;3.70;3.38;;;-0.10;99.90;;;;;;6091992;23;20019;-84
2021/12/09 07:03:33;;;;;;;3.33;3.13;;;-0.10;99.90;;;;;;6020713;23;20352;-84
2021/12/09 07:06:06;;;;;;;3.75;3.42;;;-0.10;99.90;;;;;;6068250;23;20038;-84
2021/12/09 07:08:44;;;;;;;3.60;2.63;;;-0.10;99.90;;;;;;6102420;23;20014;-85
2021/12/09 07:11:13;;;;;;;4.45;3.78;;;-0.10;99.90;;;;;;6071991;23;20053;-84
2021/12/09 07:13:41;;;;;;;4.10;3.10;;;-0.10;99.90;;;;;;6068174;23;20029;-84
2021/12/09 07:16:09;;;;;;;2.72;2.50;;;-0.10;99.90;;;;;;6043509;23;20030;-84
2021/12/09 07:18:39;;;;;;;3.13;2.92;;;-0.10;99.90;;;;;;6075418;23;20018;-83
2021/12/09 07:21:08;;;;;;;4.13;3.75;;;-0.10;99.90;;;;;;6068591;23;20497;-84
2021/12/09 07:23:35;;;;;;;3.95;3.63;;;-0.10;99.90;;;;;;6044307;23;20031;-85
2021/12/09 07:26:03;;;;;;;3.85;3.55;;;-0.10;99.90;;;;;;6067724;23;20026;-84
2021/12/09 07:28:32;;;;;;;3.67;3.10;;;-0.10;99.90;;;;;;6044141;23;20026;-84
2021/12/09 07:31:00;;;;;;;3.28;3.00;;;0.00;99.90;;;;;;6090942;23;20034;-84
2021/12/09 07:33:27;;;;;;;3.40;3.10;;;-0.10;99.90;;;;;;6068641;23;20035;-84
2021/12/09 07:35:55;;;;;;;3.03;2.55;;;-0.10;99.90;;;;;;6032073;23;20056;-82
2021/12/09 07:38:23;;;;;;;2.90;2.63;;;0.00;99.90;;;;;;6075769;23;20039;-81
2021/12/09 07:41:04;;;;;;;3.08;2.78;;;-0.10;99.90;;;;;;6021649;23;20334;-82
2021/12/09 07:45:39;;;;;;;1.95;1.85;;;-0.10;99.90;;;;;;6099561;23;20017;-83
2021/12/09 08:04:12;;;;;;;3.30;3.05;;;0.10;99.90;;;;;;5932754;24;20503;-82
2021/12/09 08:11:02;;;;;;;2.15;2.05;;;0.00;99.90;;;;;;5988396;23;20026;-82
2021/12/09 08:24:20;;;;;;;4.40;3.08;;;0.10;99.90;;;;;;5816246;24;20040;-83
2021/12/09 08:27:26;;;;;;;3.67;3.33;;;0.10;99.90;;;;;;5995277;23;20042;-83
2021/12/09 08:30:36;;;;;;;5.03;3.60;;;0.10;99.90;;;;;;5953239;23;20024;-83
2021/12/09 08:34:33;;;;;;;2.75;2.53;;;0.10;99.90;;;;;;5997920;23;20024;-82
2021/12/09 08:37:29;;;;;;;;;;;;;;;;;;;;;
2021/12/09 08:40:12;;;;;;;3.60;2.70;;;0.20;99.90;;;;;;5904885;23;20030;-83
2021/12/09 08:43:19;;;;;;;3.63;3.33;;;0.20;99.90;;;;;;5865532;24;20041;-83
2021/12/09 08:46:25;;;;;;;3.72;3.38;;;0.30;99.90;;;;;;5849331;24;20409;-82
2021/12/09 08:49:02;;;;;;;4.95;3.22;;;0.30;99.90;;;;;;5850082;24;20390;-82
2021/12/09 08:51:37;;;;;;;3.60;3.30;;;0.30;99.90;;;;;;5900353;24;20028;-82
2021/12/09 08:54:11;;;;;;;3.63;3.33;;;0.40;99.90;;;;;;5978162;23;20020;-81
2021/12/09 08:56:39;;;;;;;4.05;3.65;;;0.40;99.90;;;;;;5985759;24;20028;-81
2021/12/09 08:59:33;;;;;;;4.22;3.17;;;0.50;99.90;;;;;;5968761;23;20028;-81
2021/12/09 09:02:30;;;;;;;4.13;3.75;;;0.50;99.90;;;;;;5957950;24;20016;-81
2021/12/09 09:05:00;;;;;;;3.08;2.88;;;0.50;99.90;;;;;;5902353;24;20028;-81
2021/12/09 09:07:34;;;;;;;3.03;2.80;;;0.60;99.90;;;;;;5902023;24;20356;-82
2021/12/09 09:10:11;;;;;;;5.47;3.90;;;0.60;99.90;;;;;;5923462;24;20017;-81
2021/12/09 09:12:39;;;;;;;2.88;2.67;;;0.60;99.90;;;;;;6082047;23;20041;-80
2021/12/09 09:15:09;;;;;;;3.38;3.08;;;0.60;99.90;;;;;;6098726;23;20031;-80
2021/12/09 09:17:38;;;;;;;3.17;2.97;;;0.60;99.90;;;;;;6103710;23;20025;-81
2021/12/09 09:20:09;;;;;;;2.72;2.53;;;0.60;99.90;;;;;;6064216;23;20417;-80
2021/12/09 09:22:39;;;;;;;3.75;3.22;;;0.60;99.90;;;;;;6099891;23;20019;-79
2021/12/09 09:25:20;;;;;;;4.55;3.50;;;0.60;99.90;;;;;;6069198;23;20471;-79
2021/12/09 09:27:49;;;;;;;2.95;2.55;;;0.60;99.90;;;;;;6070809;23;20026;-79
2021/12/09 09:30:19;;;;;;;36.97;5.00;;;0.60;99.90;;;;;;6100972;23;20025;-79
2021/12/09 09:32:50;;;;;;;1.95;1.85;;;0.60;99.90;;;;;;6070111;23;20338;-79
2021/12/09 09:35:18;;;;;;;3.75;3.45;;;0.70;99.90;;;;;;6073144;23;20030;-79
2021/12/09 09:37:48;;;;;;;4.32;3.45;;;0.70;99.90;;;;;;6078199;23;20021;-78
2021/12/09 09:40:27;;;;;;;3.13;2.90;;;0.60;99.90;;;;;;6094704;23;20023;-78
2021/12/09 09:43:03;;;;;;;4.63;3.10;;;0.70;99.90;;;;;;6068060;23;20014;-78
2021/12/09 09:45:34;;;;;;;3.28;3.08;;;0.70;99.90;;;;;;6103066;23;20018;-78
2021/12/09 09:48:02;;;;;;;14.20;3.22;;;0.70;99.90;;;;;;6095332;23;20766;-77
2021/12/09 09:50:30;;;;;;;2.53;2.33;;;0.70;99.90;;;;;;6101195;23;20353;-77
2021/12/09 09:52:59;;;;;;;4.70;3.95;;;0.70;99.90;;;;;;6104301;23;20014;-78
2021/12/09 09:56:34;;;;;;;2.65;2.45;;;0.70;99.90;;;;;;6095432;23;20023;-86
2021/12/09 10:11:11;;;;;;;4.25;3.83;;;0.80;99.90;;;;;;6074237;23;20026;31
2021/12/09 10:13:45;;;;;;;3.85;3.50;;;0.80;99.90;;;;;;6039401;23;20027;-84
2021/12/09 10:17:00;;;;;;;3.17;2.88;;;0.80;99.90;;;;;;6031534;23;20025;-82
2021/12/09 10:19:31;;;;;;;3.42;3.17;;;0.70;99.90;;;;;;6102415;23;20033;-82
2021/12/09 10:22:16;;;;;;;2.88;2.65;;;0.80;99.90;;;;;;6061704;23;20353;-82
2021/12/09 10:24:47;;;;;;;4.25;3.85;;;0.70;99.90;;;;;;6096230;23;20018;-82
2021/12/09 10:27:45;;;;;;;2.95;2.75;;;0.80;99.90;;;;;;6121389;23;20070;-87
2021/12/09 10:30:24;;;;;;;4.85;4.38;;;0.80;99.90;;;;;;6057898;23;21581;-86
2021/12/09 10:33:02;;;;;;;4.55;4.15;;;0.80;99.90;;;;;;6048517;23;20026;-84
2021/12/09 10:38:46;;;;;;;5.28;4.35;;;0.70;99.90;;;;;;6095121;23;20018;-84
2021/12/09 10:41:34;;;;;;;6.20;4.53;;;0.70;99.90;;;;;;6048904;23;20025;-87
2021/12/09 10:44:03;;;;;;;4.40;4.00;;;0.70;99.90;;;;;;6086989;23;20030;-87
2021/12/09 10:47:05;;;;;;;4.72;4.13;;;0.70;99.90;;;;;;6101919;23;20025;-85
2021/12/09 10:50:08;;;;;;;5.80;5.40;;;0.70;99.90;;;;;;6137606;23;20017;-86
2021/12/09 10:52:48;;;;;;;5.85;5.25;;;0.70;99.90;;;;;;6113712;23;20021;-84
2021/12/09 10:55:56;;;;;;;6.13;5.63;;;0.70;99.90;;;;;;6096512;23;20029;-85
2021/12/09 10:58:48;;;;;;;7.20;6.53;;;0.70;99.90;;;;;;6078662;23;20022;-85
2021/12/09 11:01:31;;;;;;;5.88;5.38;;;0.70;99.90;;;;;;6136282;23;20319;-86
2021/12/09 11:04:23;;;;;;;8.43;6.03;;;0.70;99.90;;;;;;6048542;23;20026;-85
2021/12/09 11:07:20;;;;;;;5.93;5.47;;;0.70;99.90;;;;;;6101237;23;20025;-86
2021/12/09 11:10:19;;;;;;;8.02;7.22;;;0.70;99.90;;;;;;6101720;23;20013;-84
2021/12/09 11:12:57;;;;;;;5.15;4.53;;;0.70;99.90;;;;;;6136338;23;20010;-84
2021/12/09 11:15:54;;;;;;;6.13;5.47;;;0.70;99.90;;;;;;6125041;23;20029;-84
2021/12/09 11:18:36;;;;;;;8.65;7.65;;;0.70;99.90;;;;;;6101686;23;20022;-85
2021/12/09 11:21:23;;;;;;;8.88;8.00;;;0.80;99.90;;;;;;6113876;23;20014;-85
2021/12/09 11:24:12;;;;;;;11.77;7.82;;;0.80;99.90;;;;;;6078076;23;20025;-83
2021/12/09 11:29:24;;;;;;;10.40;5.35;;;0.80;99.90;;;;;;6101296;23;20025;-84
2021/12/09 11:32:16;;;;;;;10.45;7.55;;;0.80;99.90;;;;;;6127435;23;20052;-84
2021/12/09 11:34:57;;;;;;;9.88;7.70;;;0.80;99.90;;;;;;6101425;23;20357;-85
2021/12/09 11:37:47;;;;;;;13.80;8.30;;;0.70;99.90;;;;;;6125622;23;20461;-86
2021/12/09 11:40:41;;;;;;;7.88;6.00;;;0.70;99.90;;;;;;6124918;23;20026;-86
2021/12/09 11:43:21;;;;;;;8.90;6.63;;;0.80;99.90;;;;;;6114449;23;20021;-86
2021/12/09 11:45:51;;;;;;;10.20;8.05;;;0.80;99.90;;;;;;6126136;23;20029;-77
2021/12/09 11:48:19;;;;;;;7.43;6.35;;;0.80;99.90;;;;;;6151497;23;20022;-77
2021/12/09 11:50:51;;;;;;;10.07;7.28;;;0.80;99.90;;;;;;6158131;23;20024;-77
2021/12/09 11:53:25;;;;;;;12.30;9.75;;;0.80;99.90;;;;;;6161642;23;20017;-77
2021/12/09 11:56:11;;;;;;;8.40;6.90;;;0.80;99.90;;;;;;6153478;23;20479;-83
2021/12/09 11:58:56;;;;;;;8.93;7.45;;;0.80;99.90;;;;;;6159342;23;20021;-80
2021/12/09 12:14:25;;;;;;;10.35;9.02;;;0.80;99.90;;;;;;6153712;23;20017;-82
2021/12/09 12:22:06;;;;;;;15.07;8.98;;;0.90;99.90;;;;;;6107528;23;20017;-82
2021/12/09 12:24:57;;;;;;;7.88;6.05;;;0.80;99.90;;;;;;6106503;23;20353;-82
2021/12/09 12:27:28;;;;;;;7.43;6.07;;;0.80;99.90;;;;;;6095598;23;20026;-81
2021/12/09 12:33:18;;;;;;;9.02;7.10;;;0.80;99.90;;;;;;6133855;23;20015;-83
2021/12/09 12:38:51;;;;;;;15.73;8.13;;;0.90;99.90;;;;;;6129526;23;20022;-81
2021/12/09 12:41:20;;;;;;;7.90;7.07;;;0.90;99.90;;;;;;6083209;23;20014;-83
2021/12/09 12:43:59;;;;;;;14.43;7.97;;;0.90;99.90;;;;;;6098415;23;20026;-83
2021/12/09 12:47:10;;;;;;;8.93;4.80;;;1.00;99.90;;;;;;6074120;23;20033;-83
2021/12/09 12:49:35;;;;;;;13.13;7.10;;;1.00;99.90;;;;;;6098976;23;20017;-83
2021/12/09 12:52:12;;;;;;;6.40;5.38;;;1.00;99.90;;;;;;6123712;23;20030;-83
2021/12/09 12:57:31;;;;;;;8.25;5.10;;;1.00;99.90;;;;;;6098616;23;20021;-84
2021/12/09 13:00:28;;;;;;;7.10;5.82;;;1.00;99.90;;;;;;6099191;23;20022;-86
2021/12/09 13:14:23;;;;;;;6.80;5.55;;;1.00;99.90;;;;;;6133675;23;20572;-86
2021/12/09 13:19:13;;;;;;;5.85;4.57;;;1.00;99.90;;;;;;6015556;23;20023;-84
2021/12/09 13:21:51;;;;;;;18.00;8.30;;;1.00;99.90;;;;;;6044227;23;20072;-82
2021/12/09 13:24:20;;;;;;;8.38;6.25;;;0.90;99.90;;;;;;5986888;23;20463;-83
2021/12/09 13:27:10;;;;;;;8.85;7.43;;;0.90;99.90;;;;;;6015989;23;20023;-83
2021/12/09 13:29:55;;;;;;;7.63;5.03;;;0.90;99.90;;;;;;6020575;23;20026;-85
2021/12/09 13:55:42;;;;;;;6.72;4.50;;;1.00;99.90;;;;;;6087389;23;20473;-92
2021/12/09 13:58:36;;;;;;;7.05;3.72;;;1.20;99.90;;;;;;6074871;23;20018;-92
2021/12/09 14:01:19;;;;;;;12.75;8.73;;;1.10;99.90;;;;;;6071955;23;20039;-86
2021/12/09 14:03:47;;;;;;;5.88;5.05;;;1.20;99.90;;;;;;6072674;23;20033;-86
2021/12/09 14:06:16;;;;;;;8.93;6.03;;;1.20;99.90;;;;;;6095936;23;20049;-87
2021/12/09 14:08:52;;;;;;;10.98;5.35;;;1.10;99.90;;;;;;6097297;23;20024;-87
2021/12/09 14:11:32;;;;;;;10.95;7.72;;;1.10;99.90;;;;;;6101143;23;20022;-86
2021/12/09 14:14:12;;;;;;;10.27;7.95;;;1.10;99.90;;;;;;6096645;23;20341;-87
2021/12/09 14:16:51;;;;;;;8.23;5.25;;;1.10;99.90;;;;;;6111295;23;20021;-88
2021/12/09 14:21:56;;;;;;;10.82;6.35;;;1.00;99.90;;;;;;6100969;23;20025;-88
2021/12/09 14:24:31;;;;;;;8.20;5.15;;;1.00;99.90;;;;;;6137343;23;20017;-86
2021/12/09 14:27:15;;;;;;;14.15;6.15;;;1.00;99.90;;;;;;6101972;23;20025;-86
2021/12/09 14:29:49;;;;;;;10.77;5.88;;;1.00;99.90;;;;;;6136628;23;20483;-87
2021/12/09 14:32:19;;;;;;;7.38;6.10;;;1.10;99.90;;;;;;6152761;23;20468;-86
2021/12/09 14:34:50;;;;;;;12.40;8.13;;;1.00;99.90;;;;;;6101885;23;20021;-87
2021/12/09 14:37:40;;;;;;;9.27;5.13;;;1.00;99.90;;;;;;6162980;23;20025;-87
2021/12/09 14:40:11;;;;;;;6.47;4.80;;;0.90;99.90;;;;;;6126775;23;20037;-86
2021/12/09 14:42:51;;;;;;;;;;;0.90;99.90;;;;;;6108799;23;20025;-86
2021/12/09 14:45:28;;;;;;;4.88;4.45;;;1.00;99.90;;;;;;6138184;23;19928;-87
2021/12/09 14:47:59;;;;;;;5.03;4.45;;;1.00;99.90;;;;;;6100947;23;20025;-87
2021/12/09 14:50:39;;;;;;;7.03;4.28;;;1.00;99.90;;;;;;6078116;23;20018;-87
2021/12/09 14:53:38;;;;;;;7.32;5.90;;;0.90;99.90;;;;;;6101038;23;20024;-86
2021/12/09 14:56:22;;;;;;;9.32;4.60;;;0.90;99.90;;;;;;6127633;23;20017;-85
2021/12/09 14:58:52;;;;;;;14.00;5.32;;;1.00;99.90;;;;;;6131325;23;20021;-86
2021/12/09 15:01:22;;;;;;;5.18;4.68;;;1.10;99.90;;;;;;6136511;23;20456;-87
2021/12/09 15:04:04;;;;;;;7.32;4.95;;;1.00;99.90;;;;;;6154224;23;20491;-86
2021/12/09 15:06:38;;;;;;;7.97;5.47;;;0.90;99.90;;;;;;6132885;23;20021;-84
2021/12/09 15:09:22;;;;;;;5.65;5.15;;;0.90;99.90;;;;;;6077600;23;20028;-88
2021/12/09 15:12:06;;;;;;;6.43;5.82;;;0.90;99.90;;;;;;6100338;23;20056;-86
2021/12/09 15:14:37;;;;;;;5.90;4.45;;;0.80;99.90;;;;;;6077602;23;20025;-86
2021/12/09 15:17:13;;;;;;;13.45;5.40;;;0.90;99.90;;;;;;6129621;23;20013;-86
2021/12/09 15:20:07;;;;;;;5.75;5.22;;;0.80;99.90;;;;;;6125823;23;20060;-86
2021/12/09 15:22:43;;;;;;;13.77;4.93;;;0.80;99.90;;;;;;6101625;23;20025;-86
2021/12/09 15:25:14;;;;;;;9.73;5.85;;;0.70;99.90;;;;;;6079120;23;20319;-86
2021/12/09 15:27:52;;;;;;;9.02;5.75;;;0.70;99.90;;;;;;6100288;23;20021;-86
2021/12/09 15:30:38;;;;;;;5.85;4.53;;;0.70;99.90;;;;;;6109526;23;20080;-86
2021/12/09 15:33:07;;;;;;;14.90;5.30;;;0.70;99.90;;;;;;6102593;23;20024;-86
2021/12/09 15:35:36;;;;;;;5.57;4.72;;;0.70;99.90;;;;;;6078142;23;20495;-86
2021/12/09 15:38:04;;;;;;;8.70;5.47;;;0.70;99.90;;;;;;6077392;23;20018;-85
2021/12/09 15:40:50;;;;;;;5.82;5.20;;;0.70;99.90;;;;;;6101625;23;20338;-86
2021/12/09 15:43:22;;;;;;;8.10;4.95;;;0.70;99.90;;;;;;6125168;23;20036;-86
2021/12/09 15:46:02;;;;;;;8.27;5.55;;;0.70;99.90;;;;;;6078610;23;20341;-87
2021/12/09 15:48:36;;;;;;;10.60;6.50;;;0.70;99.90;;;;;;6098655;23;20022;-86
2021/12/09 15:51:13;;;;;;;6.68;5.10;;;0.60;99.90;;;;;;6107238;23;20040;-86
2021/12/09 15:53:51;;;;;;;4.60;4.05;;;0.70;99.90;;;;;;6112338;23;20017;-86
2021/12/09 15:56:23;;;;;;;9.18;5.45;;;0.70;99.90;;;;;;6102039;23;20208;-86
2021/12/09 15:58:53;;;;;;;9.57;5.65;;;0.70;99.90;;;;;;6100977;23;20021;-86
2021/12/09 16:01:26;;;;;;;7.45;6.47;;;0.80;99.90;;;;;;6136434;23;20010;-91
2021/12/09 16:03:57;;;;;;;7.45;6.57;;;0.60;99.90;;;;;;6077692;23;20025;-91
2021/12/09 16:06:29;;;;;;;5.47;4.55;;;0.70;99.90;;;;;;6073079;23;20359;-92
2021/12/09 16:09:14;;;;;;;;;;;;;;;;;;;;;
2021/12/09 16:13:09;;;;;;;8.77;4.28;;;0.60;99.90;;;;;;6023370;23;20359;-91
2021/12/09 16:19:42;;;;;;;12.57;6.80;;;0.70;99.90;;;;;;5960712;23;20028;-92
2021/12/09 16:22:35;;;;;;;5.95;4.75;;;0.70;99.90;;;;;;5883386;24;20024;-87
2021/12/09 16:25:13;;;;;;;6.88;5.82;;;0.70;99.90;;;;;;6020243;23;20344;-86
2021/12/09 16:27:50;;;;;;;6.00;5.40;;;0.70;99.90;;;;;;6037071;23;20387;-88
2021/12/09 16:30:31;;;;;;;10.27;5.60;;;0.70;99.90;;;;;;5988859;23;20031;-88
2021/12/09 16:33:06;;;;;;;7.25;4.25;;;0.70;99.90;;;;;;6104447;23;20021;-88
2021/12/09 16:36:00;;;;;;;9.80;5.40;;;0.70;99.90;;;;;;6131732;23;20772;-88
2021/12/09 16:38:38;;;;;;;8.23;7.38;;;0.70;99.90;;;;;;6079509;23;20029;-88
2021/12/09 16:41:10;;;;;;;7.43;4.72;;;0.80;99.90;;;;;;6126857;23;20018;-87
2021/12/09 16:43:40;;;;;;;6.80;4.82;;;0.70;99.90;;;;;;6102599;23;20037;-88
2021/12/09 16:46:14;;;;;;;7.22;4.35;;;0.70;99.90;;;;;;6123536;23;20338;-87
2021/12/09 16:48:46;;;;;;;6.38;5.88;;;0.70;99.90;;;;;;6128597;23;20026;-87
2021/12/09 16:51:21;;;;;;;6.20;5.60;;;0.70;99.90;;;;;;6121595;23;20041;-88
2021/12/09 16:54:27;;;;;;;6.28;5.78;;;0.70;99.90;;;;;;6098064;23;20344;-87
2021/12/09 17:00:07;;;;;;;6.32;4.55;;;0.70;99.90;;;;;;6087407;23;20026;-88
2021/12/09 17:02:45;;;;;;;7.88;5.20;;;0.70;99.90;;;;;;6119215;23;20528;-88